createdAt,value
2018-06-22T00:02:20.403Z,18.00
2018-06-22T00:04:49.654Z,18.00
2018-06-22T00:09:48.063Z,17.90
2018-06-22T00:12:17.284Z,17.80
2018-06-22T00:14:46.530Z,17.80
2018-06-22T00:17:15.983Z,17.70
2018-06-22T00:19:45.110Z,17.60
2018-06-22T00:22:14.410Z,17.70
2018-06-22T00:24:44.475Z,17.70
2018-06-22T00:27:14.258Z,17.70
2018-06-22T00:29:43.616Z,17.60
2018-06-22T00:32:13.046Z,17.40
2018-06-22T00:34:43.053Z,17.40
2018-06-22T00:37:13.073Z,17.30
2018-06-22T00:57:29.172Z,16.90
2018-06-22T00:59:59.514Z,16.90
2018-06-22T01:02:28.793Z,16.90
2018-06-22T01:04:59.020Z,16.90
2018-06-22T01:07:28.193Z,16.90
2018-06-22T01:09:57.480Z,16.70
2018-06-22T01:12:27.983Z,16.70
2018-06-22T01:14:57.738Z,16.70
2018-06-22T01:17:28.347Z,16.60
2018-06-22T01:19:57.604Z,16.50
2018-06-22T01:22:27.238Z,16.40
2018-06-22T01:24:56.462Z,16.30
2018-06-22T01:27:27.360Z,16.20
2018-06-22T01:29:56.551Z,16.10
2018-06-22T01:32:26.038Z,16.10
2018-06-22T01:34:55.470Z,16.00
2018-06-22T01:37:25.450Z,16.00
2018-06-22T01:57:40.980Z,15.60
2018-06-22T02:00:10.157Z,15.50
2018-06-22T02:02:39.413Z,15.50
2018-06-22T02:05:09.051Z,15.50
2018-06-22T02:07:38.303Z,15.50
2018-06-22T02:10:07.571Z,15.40
2018-06-22T02:12:36.813Z,15.30
2018-06-22T02:15:06.107Z,15.30
2018-06-22T02:17:36.007Z,15.30
2018-06-22T02:20:06.103Z,15.30
2018-06-22T02:22:36.868Z,15.40
2018-06-22T02:42:46.127Z,15.10
2018-06-22T02:45:15.416Z,15.10
2018-06-22T02:47:45.162Z,15.10
2018-06-22T02:50:14.448Z,15.00
2018-06-22T02:52:43.845Z,15.00
2018-06-22T02:55:13.911Z,15.00
2018-06-22T02:57:43.199Z,14.90
2018-06-22T03:17:52.202Z,14.80
2018-06-22T03:20:21.453Z,14.80
2018-06-22T03:22:51.587Z,14.70
2018-06-22T03:25:20.803Z,14.70
2018-06-22T03:27:50.205Z,14.70
2018-06-22T03:30:20.194Z,14.70
2018-06-22T03:32:49.413Z,14.60
2018-06-22T03:35:19.539Z,14.50
2018-06-22T03:37:48.742Z,14.60
2018-06-22T03:58:04.026Z,14.30
2018-06-22T04:18:18.288Z,14.00
2018-06-22T04:20:48.109Z,13.90
2018-06-22T04:23:17.437Z,13.90
2018-06-22T04:25:46.660Z,14.00
2018-06-22T04:28:15.971Z,14.00
2018-06-22T04:30:45.196Z,14.00
2018-06-22T04:33:14.490Z,14.00
2018-06-22T04:35:43.825Z,14.00
2018-06-22T04:38:12.986Z,14.10
2018-06-22T04:40:42.917Z,13.90
2018-06-22T04:43:12.201Z,14.00
2018-06-22T04:45:41.497Z,14.00
2018-06-22T05:05:56.115Z,13.80
2018-06-22T05:08:25.467Z,13.90
2018-06-22T05:10:54.762Z,13.90
2018-06-22T05:13:24.075Z,13.80
2018-06-22T05:33:39.279Z,14.00
2018-06-22T05:36:08.666Z,14.10
2018-06-22T05:38:38.687Z,14.10
2018-06-22T05:43:36.932Z,14.10
2018-06-22T05:46:06.346Z,14.00
2018-06-22T05:48:36.095Z,14.00
2018-06-22T06:08:51.170Z,14.40
2018-06-22T06:11:20.430Z,14.40
2018-06-22T06:13:49.602Z,14.30
2018-06-22T06:33:59.914Z,14.40
2018-06-22T06:36:30.270Z,14.60
2018-06-22T06:38:59.687Z,14.70
2018-06-22T06:41:29.598Z,14.80
2018-06-22T07:01:43.854Z,15.10
2018-06-22T07:04:13.309Z,15.00
2018-06-22T07:06:42.491Z,14.90
2018-06-22T07:09:11.814Z,14.90
2018-06-22T07:11:41.896Z,14.90
2018-06-22T07:14:11.130Z,14.90
2018-06-22T07:16:41.246Z,15.00
2018-06-22T07:39:25.892Z,15.50
2018-06-22T07:41:55.179Z,15.40
2018-06-22T07:44:24.437Z,15.40
2018-06-22T07:49:22.417Z,15.50
2018-06-22T07:51:51.673Z,15.50
2018-06-22T08:12:06.039Z,16.00
2018-06-22T08:14:35.939Z,15.80
2018-06-22T08:34:50.434Z,15.80
2018-06-22T08:37:19.705Z,15.80
2018-06-22T08:42:18.544Z,15.60
2018-06-22T08:44:47.704Z,15.80
2018-06-22T08:47:16.998Z,15.60
2018-06-22T08:49:46.254Z,15.70
2018-06-22T08:52:15.476Z,15.80
2018-06-22T08:54:44.734Z,15.90
2018-06-22T08:57:14.514Z,15.80
2018-06-22T08:59:43.890Z,15.80
2018-06-22T09:02:13.103Z,15.90
2018-06-22T09:04:42.310Z,15.90
2018-06-22T09:07:11.638Z,16.10
2018-06-22T09:09:40.881Z,16.20
2018-06-22T09:12:10.188Z,16.20
2018-06-22T09:14:40.054Z,16.10
2018-06-22T09:17:09.414Z,16.20
2018-06-22T09:19:38.791Z,16.10
2018-06-22T09:22:08.300Z,15.80
2018-06-22T09:24:38.315Z,15.90
2018-06-22T09:27:07.581Z,16.00
2018-06-22T09:29:37.782Z,16.00
2018-06-22T09:32:08.351Z,16.00
2018-06-22T09:34:37.591Z,16.10
2018-06-22T09:39:38.834Z,16.50
2018-06-22T09:42:08.365Z,16.50
2018-06-22T09:47:08.396Z,16.70
2018-06-22T09:52:06.443Z,16.90
2018-06-22T10:12:21.676Z,17.20
2018-06-22T10:14:50.959Z,17.10
2018-06-22T10:17:20.386Z,17.00
2018-06-22T10:19:49.883Z,16.90
2018-06-22T10:22:19.769Z,16.90
2018-06-22T10:24:49.086Z,17.00
2018-06-22T10:27:19.072Z,17.10
2018-06-22T10:29:49.688Z,17.10
2018-06-22T10:50:06.096Z,17.90
2018-06-22T10:52:35.408Z,17.60
2018-06-22T10:55:04.826Z,17.50
2018-06-22T10:57:35.198Z,17.50
2018-06-22T11:00:05.523Z,17.70
2018-06-22T11:02:34.839Z,17.70
2018-06-22T11:05:05.009Z,18.00
2018-06-22T11:07:34.987Z,18.20
2018-06-22T11:27:50.723Z,18.60
2018-06-22T11:30:20.605Z,18.80
2018-06-22T11:32:49.858Z,18.80
2018-06-22T11:35:19.147Z,18.80
2018-06-22T11:37:48.471Z,19.00
2018-06-22T11:40:17.714Z,19.20
2018-06-22T11:42:47.110Z,19.30
2018-06-22T11:45:16.361Z,19.40
2018-06-22T12:05:32.009Z,19.50
2018-06-22T12:08:02.698Z,19.60
2018-06-22T12:10:31.973Z,19.80
2018-06-22T12:13:01.628Z,20.00
2018-06-22T12:15:30.840Z,20.10
2018-06-22T12:18:00.063Z,20.20
2018-06-22T12:20:29.590Z,20.40
2018-06-22T12:22:58.826Z,20.50
2018-06-22T12:25:27.996Z,20.80
2018-06-22T12:27:57.451Z,20.80
2018-06-22T12:30:26.670Z,20.90
2018-06-22T12:32:56.418Z,20.60
2018-06-22T12:35:26.610Z,20.20
2018-06-22T12:37:55.914Z,20.10
2018-06-22T12:40:26.648Z,20.30
2018-06-22T12:42:56.739Z,20.60
2018-06-22T12:45:26.192Z,21.00
2018-06-22T12:50:24.302Z,21.10
2018-06-22T12:52:53.594Z,21.40
2018-06-22T12:55:22.781Z,21.60
2018-06-22T12:57:52.102Z,21.90
2018-06-22T13:00:21.479Z,22.10
2018-06-22T13:02:51.291Z,21.80
2018-06-22T13:23:06.977Z,23.70
2018-06-22T13:25:36.142Z,24.30
2018-06-22T13:28:05.664Z,25.10
2018-06-22T13:30:35.572Z,25.10
2018-06-22T13:50:50.278Z,21.80
2018-06-22T13:53:19.862Z,21.70
2018-06-22T14:13:34.666Z,22.10
2018-06-22T14:16:04.050Z,21.80
2018-06-22T14:18:34.362Z,21.50
2018-06-22T14:38:49.545Z,20.60
2018-06-22T14:59:10.029Z,21.20
2018-06-22T15:01:44.682Z,21.00
2018-06-22T15:22:00.512Z,22.40
2018-06-22T15:42:21.904Z,20.60
2018-06-22T15:44:57.170Z,20.40
2018-06-22T16:05:12.651Z,20.20
2018-06-22T16:07:43.411Z,20.00
2018-06-22T16:10:14.889Z,19.80
2018-06-22T16:12:44.830Z,19.60
2018-06-22T16:15:19.767Z,19.60
2018-06-22T16:35:34.222Z,19.30
2018-06-22T16:38:04.361Z,19.30
2018-06-22T16:40:33.692Z,19.30
2018-06-22T16:43:03.290Z,19.30
2018-06-22T16:45:32.596Z,19.30
2018-06-22T16:48:02.839Z,19.40
2018-06-22T17:08:23.922Z,19.10
2018-06-22T17:10:58.434Z,19.10
2018-06-22T17:31:15.100Z,19.00
2018-06-22T17:33:44.603Z,19.00
2018-06-22T17:36:13.826Z,19.00
2018-06-22T17:38:43.374Z,19.00
2018-06-22T17:59:03.455Z,18.40
2018-06-22T18:01:38.164Z,18.40
2018-06-22T18:04:13.527Z,18.30
2018-06-22T18:06:48.266Z,18.30
2018-06-22T18:09:22.962Z,18.30
2018-06-22T18:29:37.307Z,18.00
2018-06-22T18:32:06.667Z,18.00
2018-06-22T18:34:35.954Z,17.90
2018-06-22T18:37:05.289Z,17.90
2018-06-22T18:39:36.001Z,17.90
2018-06-22T18:42:05.354Z,17.90
2018-06-22T18:47:04.898Z,17.80
2018-06-22T18:49:34.158Z,17.70
2018-06-22T18:52:09.673Z,17.70
2018-06-22T18:55:48.053Z,17.70
2018-06-22T19:16:03.125Z,17.50
2018-06-22T19:18:32.296Z,17.50
2018-06-22T19:21:02.998Z,17.40
2018-06-22T19:23:34.294Z,17.40
2018-06-22T19:26:03.953Z,17.30
2018-06-22T19:28:34.203Z,17.30
2018-06-22T19:48:54.444Z,17.20
2018-06-22T19:51:28.850Z,17.10
2018-06-22T20:11:45.114Z,17.00
2018-06-22T20:32:09.722Z,16.70
2018-06-22T20:34:44.760Z,16.70
2018-06-22T20:37:20.729Z,16.50
2018-06-22T20:39:56.942Z,16.60
2018-06-22T21:00:11.785Z,16.50
2018-06-22T21:02:41.609Z,16.50
2018-06-22T21:05:10.876Z,16.40
2018-06-22T21:07:41.284Z,16.40
2018-06-22T21:10:10.660Z,16.40
2018-06-22T21:30:31.285Z,16.10
2018-06-22T21:33:06.630Z,16.10
2018-06-22T21:53:20.929Z,15.70
2018-06-22T21:55:50.268Z,15.70
2018-06-22T22:16:05.159Z,15.30
2018-06-22T22:18:34.528Z,15.20
2018-06-22T22:21:03.931Z,15.20
2018-06-22T22:23:33.157Z,15.20
2018-06-22T22:26:02.394Z,15.20
2018-06-22T22:28:31.698Z,15.20
2018-06-22T22:31:02.400Z,15.10
2018-06-22T22:33:31.613Z,15.00
2018-06-22T22:36:01.533Z,14.90
2018-06-22T22:38:30.828Z,14.90
2018-06-22T22:41:00.102Z,14.90
2018-06-22T23:01:14.867Z,15.00
2018-06-22T23:03:44.057Z,15.00
2018-06-22T23:06:13.253Z,15.00
2018-06-22T23:08:43.596Z,15.00
2018-06-22T23:11:12.994Z,14.90
2018-06-22T23:13:42.905Z,14.90
2018-06-22T23:16:12.284Z,14.80
2018-06-22T23:18:42.803Z,14.70
2018-06-22T23:38:57.676Z,14.20
2018-06-22T23:41:26.856Z,14.20
2018-06-22T23:43:56.869Z,14.10
2018-06-22T23:46:26.906Z,13.90
2018-06-22T23:48:56.199Z,13.90
2018-06-22T23:51:26.382Z,13.80
2018-06-22T23:53:55.999Z,13.90
2018-06-22T23:56:25.719Z,13.80
2018-06-22T23:58:55.282Z,13.80
